Time;durP1;ratioP1;P1;durP2;ratioP2;P2;SDS_P1;SDS_P2;PMS_P1;PMS_P2;Temp;Humidity;BMP_temperature;BMP_pressure;BME280_temperature;BME280_humidity;BME280_pressure;Samples;Min_cycle;Max_cycle;Signal;HPM_P1;HPM_P2
2022/05/13 00:01:25;;;;;;;3.83;0.90;;;19.80;99.90;;;;;;5089134;28;20303;-81
2022/05/13 00:03:56;;;;;;;5.28;1.40;;;19.70;99.90;;;;;;5084804;28;20654;-80
2022/05/13 00:06:26;;;;;;;4.18;1.38;;;19.80;99.90;;;;;;5092388;28;20192;-79
2022/05/13 00:08:57;;;;;;;5.55;1.45;;;19.80;99.90;;;;;;5091813;28;20227;-80
2022/05/13 00:11:28;;;;;;;4.25;1.30;;;19.80;99.90;;;;;;5091063;28;20223;-81
2022/05/13 00:13:59;;;;;;;5.32;1.60;;;19.80;99.90;;;;;;5092143;28;20187;-81
2022/05/13 00:16:34;;;;;;;9.18;1.48;;;19.80;99.90;;;;;;5095267;28;20654;-81
2022/05/13 00:19:05;;;;;;;5.95;1.80;;;19.70;99.90;;;;;;5087513;28;20287;-81
2022/05/13 00:21:36;;;;;;;5.03;1.63;;;19.70;99.90;;;;;;5092270;28;20195;-82
2022/05/13 00:24:08;;;;;;;5.25;1.52;;;19.70;99.90;;;;;;5092129;28;20662;-81
2022/05/13 00:26:38;;;;;;;6.00;1.73;;;19.70;99.90;;;;;;5092557;28;20187;-82
2022/05/13 00:29:09;;;;;;;4.35;1.20;;;19.70;99.90;;;;;;5091790;28;20252;-81
2022/05/13 00:31:42;;;;;;;5.18;1.40;;;19.70;99.90;;;;;;5089501;28;20628;-82
2022/05/13 00:34:13;;;;;;;6.50;1.40;;;19.80;99.90;;;;;;5093342;28;20666;-81
2022/05/13 00:36:44;;;;;;;4.00;1.20;;;19.80;99.90;;;;;;5091542;28;20237;-80
2022/05/13 00:39:15;;;;;;;5.53;1.48;;;19.80;99.90;;;;;;5090997;28;20283;-81
2022/05/13 00:41:46;;;;;;;3.63;1.30;;;19.80;99.90;;;;;;5090823;28;20202;-80
2022/05/13 00:44:17;;;;;;;6.63;1.42;;;19.80;99.90;;;;;;5086765;28;20188;-81
2022/05/13 00:46:51;;;;;;;4.35;1.33;;;19.90;99.90;;;;;;5082243;28;20270;-80
2022/05/13 00:49:22;;;;;;;3.95;1.27;;;19.90;99.90;;;;;;5087860;28;20539;-81
2022/05/13 00:51:52;;;;;;;3.70;1.30;;;19.90;99.90;;;;;;5081625;28;20276;-81
2022/05/13 00:54:25;;;;;;;2.58;1.25;;;19.90;99.90;;;;;;5091445;28;20191;-81
2022/05/13 00:56:56;;;;;;;5.22;1.30;;;19.90;99.90;;;;;;5090614;28;20203;-81
2022/05/13 00:59:29;;;;;;;6.95;1.40;;;19.90;99.90;;;;;;5089733;28;20219;-81
2022/05/13 01:02:02;;;;;;;4.95;1.40;;;20.00;99.90;;;;;;5086696;28;20241;-81
2022/05/13 01:04:35;;;;;;;4.43;1.20;;;20.00;99.90;;;;;;5088142;28;20191;-82
2022/05/13 01:07:12;;;;;;;5.05;1.17;;;20.00;99.90;;;;;;5090827;28;20618;-81
2022/05/13 01:09:48;;;;;;;4.95;1.27;;;20.00;99.90;;;;;;5091670;28;20191;-82
2022/05/13 01:12:22;;;;;;;2.78;1.05;;;20.00;99.90;;;;;;5091044;28;20717;-80
2022/05/13 01:14:57;;;;;;;5.68;1.52;;;20.00;99.90;;;;;;5091243;28;20263;-81
2022/05/13 01:20:20;;;;;;;3.10;1.08;;;20.10;99.90;;;;;;5091426;28;20700;-82
2022/05/13 01:22:55;;;;;;;3.17;0.95;;;20.00;99.90;;;;;;5090006;28;20199;-80
2022/05/13 01:25:27;;;;;;;3.83;0.80;;;20.00;99.90;;;;;;5096190;28;20620;-80
2022/05/13 01:27:59;;;;;;;2.55;0.80;;;20.00;99.90;;;;;;5090793;28;20236;-81
2022/05/13 01:30:32;;;;;;;3.83;1.10;;;20.00;99.90;;;;;;5090524;28;20199;-81
2022/05/13 01:33:03;;;;;;;2.97;0.90;;;20.00;99.90;;;;;;5088455;28;20199;-81
2022/05/13 01:35:33;;;;;;;2.95;1.00;;;20.00;99.90;;;;;;5090699;28;20612;-81
2022/05/13 01:38:06;;;;;;;3.30;0.90;;;20.00;99.90;;;;;;5089814;28;20195;-81
2022/05/13 01:40:37;;;;;;;2.55;0.70;;;20.00;99.90;;;;;;5089452;28;20730;-81
2022/05/13 01:43:09;;;;;;;3.53;0.80;;;20.10;99.90;;;;;;5096346;28;20188;-81
2022/05/13 01:45:41;;;;;;;2.75;0.80;;;20.10;99.90;;;;;;5084495;28;20241;-81
2022/05/13 01:48:12;;;;;;;3.20;0.90;;;20.10;99.90;;;;;;5090158;28;20226;-83
2022/05/13 01:50:43;;;;;;;2.33;0.85;;;20.10;99.90;;;;;;5090821;28;20256;-83
2022/05/13 01:53:15;;;;;;;3.13;1.42;;;20.20;99.90;;;;;;5084765;28;20270;-84
2022/05/13 01:55:46;;;;;;;5.32;1.23;;;20.20;99.90;;;;;;5081509;28;20261;-82
2022/05/13 01:58:19;;;;;;;3.15;1.30;;;20.20;99.90;;;;;;5091365;28;20195;-83
2022/05/13 02:00:51;;;;;;;4.03;1.33;;;20.20;99.90;;;;;;5090314;28;20210;-80
2022/05/13 02:06:08;;;;;;;3.38;1.30;;;20.20;99.90;;;;;;5090272;28;20351;-81
2022/05/13 02:08:42;;;;;;;4.55;1.30;;;20.20;99.90;;;;;;5089810;28;20203;-81
2022/05/13 02:11:13;;;;;;;4.78;1.45;;;20.20;99.90;;;;;;5087503;28;20207;-82
2022/05/13 02:13:47;;;;;;;3.63;1.40;;;20.20;99.90;;;;;;5090671;28;20184;-80
2022/05/13 02:16:18;;;;;;;5.63;1.38;;;20.30;99.90;;;;;;5090717;28;20203;-81
2022/05/13 02:18:48;;;;;;;4.40;1.40;;;20.30;99.90;;;;;;5087328;28;20238;-82
2022/05/13 02:21:19;;;;;;;3.08;1.15;;;20.40;99.90;;;;;;5089752;28;20244;-83
2022/05/13 02:23:52;;;;;;;4.75;1.08;;;20.40;99.90;;;;;;5088431;28;20183;-83
2022/05/13 02:26:23;;;;;;;4.97;1.35;;;20.50;99.90;;;;;;5087997;28;20712;-83
2022/05/13 02:28:53;;;;;;;5.40;1.42;;;20.50;99.90;;;;;;5080160;28;20198;-83
2022/05/13 02:31:24;;;;;;;3.75;1.20;;;20.50;99.90;;;;;;5083027;28;20203;-80
2022/05/13 02:33:55;;;;;;;3.47;1.15;;;20.50;99.90;;;;;;5088077;28;20187;-81
2022/05/13 02:36:25;;;;;;;2.58;0.95;;;20.50;99.90;;;;;;5090039;28;20838;-83
2022/05/13 02:38:58;;;;;;;2.15;1.00;;;20.50;99.90;;;;;;5090427;28;20203;-85
2022/05/13 02:41:28;;;;;;;2.70;1.00;;;20.50;99.90;;;;;;5083776;28;20187;-83
2022/05/13 02:43:59;;;;;;;2.20;1.10;;;20.50;99.90;;;;;;5086820;28;20584;-84
2022/05/13 02:46:32;;;;;;;3.17;0.93;;;20.60;99.90;;;;;;5086404;28;20256;-82
2022/05/13 02:49:03;;;;;;;3.15;0.93;;;20.60;99.90;;;;;;5089504;28;20195;-81
2022/05/13 02:51:34;;;;;;;3.45;1.00;;;20.60;99.90;;;;;;5089979;28;20685;-82
2022/05/13 02:54:07;;;;;;;3.35;1.02;;;20.60;99.90;;;;;;5073291;28;20184;-80
2022/05/13 02:56:38;;;;;;;2.67;0.80;;;20.60;99.90;;;;;;5089844;28;20188;-82
2022/05/13 02:59:09;;;;;;;2.78;1.00;;;20.70;99.90;;;;;;5089097;28;20244;-83
2022/05/13 03:01:40;;;;;;;3.25;1.00;;;20.60;99.90;;;;;;5093342;28;20253;-82
2022/05/13 03:04:11;;;;;;;3.03;1.20;;;20.70;99.90;;;;;;5093716;28;20414;-84
2022/05/13 03:06:42;;;;;;;2.38;1.42;;;20.70;99.90;;;;;;5094390;28;20203;-86
2022/05/13 03:09:14;;;;;;;4.05;1.30;;;20.70;99.90;;;;;;5092197;28;20261;-84
2022/05/13 03:11:45;;;;;;;3.40;1.38;;;20.60;99.90;;;;;;5094203;28;20223;-85
2022/05/13 03:14:16;;;;;;;4.70;1.50;;;20.70;99.90;;;;;;5102674;28;20332;-84
2022/05/13 03:16:46;;;;;;;4.22;1.58;;;20.70;99.90;;;;;;5078835;28;20650;-84
2022/05/13 03:19:17;;;;;;;3.40;1.10;;;20.70;99.90;;;;;;5101691;28;20226;-84
2022/05/13 03:21:47;;;;;;;2.97;1.20;;;20.70;99.90;;;;;;5093561;28;20195;-84
2022/05/13 03:24:20;;;;;;;4.07;1.25;;;20.70;99.90;;;;;;5100555;28;20191;-84
2022/05/13 03:26:51;;;;;;;3.50;1.10;;;20.70;99.90;;;;;;5094088;28;20195;-84
2022/05/13 03:29:21;;;;;;;3.17;1.00;;;20.80;99.90;;;;;;5093419;28;20192;-84
2022/05/13 03:31:52;;;;;;;2.95;1.20;;;20.80;99.90;;;;;;5091695;28;20323;-84
2022/05/13 03:34:23;;;;;;;3.03;0.98;;;20.80;99.90;;;;;;5092148;28;20195;-82
2022/05/13 03:36:54;;;;;;;3.63;0.73;;;20.90;99.90;;;;;;5092893;28;20263;-82
2022/05/13 03:39:26;;;;;;;1.63;0.68;;;20.90;99.90;;;;;;5091540;28;20195;-81
2022/05/13 03:41:57;;;;;;;1.92;0.60;;;20.90;99.90;;;;;;5087271;28;20195;-81
2022/05/13 03:44:28;;;;;;;2.33;0.60;;;20.80;99.90;;;;;;5086585;28;20176;-81
2022/05/13 03:46:58;;;;;;;1.20;0.70;;;20.80;99.90;;;;;;5099568;28;20228;-81
2022/05/13 03:49:29;;;;;;;2.33;0.70;;;20.80;99.90;;;;;;5091497;28;20226;-82
2022/05/13 03:52:00;;;;;;;4.10;0.60;;;20.80;99.90;;;;;;5092270;28;20223;-83
2022/05/13 03:54:32;;;;;;;1.17;0.50;;;20.80;99.90;;;;;;5092670;28;20604;-83
2022/05/13 03:57:03;;;;;;;1.17;0.45;;;20.80;99.90;;;;;;5096338;28;20194;-82
2022/05/13 03:59:33;;;;;;;0.82;0.50;;;20.80;99.90;;;;;;5091242;28;20245;-84
2022/05/13 04:02:04;;;;;;;1.75;0.60;;;20.80;99.90;;;;;;5091457;28;20199;-83
2022/05/13 04:08:56;;;;;;;3.15;0.73;;;20.90;99.90;;;;;;5086669;28;20198;-85
2022/05/13 04:10:15;;;;;;;3.30;0.95;;;21.00;99.90;;;;;;5103788;28;20226;-83
2022/05/13 04:18:18;;;;;;;2.75;1.00;;;21.00;99.90;;;;;;5070605;28;20227;-84
2022/05/13 04:20:49;;;;;;;3.85;1.10;;;21.00;99.90;;;;;;5078523;28;20191;-83
2022/05/13 04:23:21;;;;;;;3.92;1.00;;;21.00;99.90;;;;;;5084689;28;21038;-82
2022/05/13 04:25:53;;;;;;;3.03;1.00;;;21.00;99.90;;;;;;5092094;28;20245;-84
2022/05/13 04:28:24;;;;;;;3.05;1.00;;;21.00;99.90;;;;;;5076001;28;20195;-83
2022/05/13 04:30:55;;;;;;;3.20;1.08;;;21.00;99.90;;;;;;5092423;28;20195;-84
2022/05/13 04:33:28;;;;;;;4.13;1.00;;;21.00;99.90;;;;;;5085299;28;20261;-84
2022/05/13 04:35:59;;;;;;;3.42;1.25;;;21.00;99.90;;;;;;5093448;28;20179;-83
2022/05/13 04:38:30;;;;;;;3.03;0.80;;;21.00;99.90;;;;;;5091616;28;20203;-83
2022/05/13 04:42:49;;;;;;;4.13;1.33;;;21.00;99.90;;;;;;5092109;28;20241;-82
2022/05/13 04:43:52;;;;;;;3.10;1.00;;;21.10;99.90;;;;;;5093147;28;20187;-83
2022/05/13 04:46:23;;;;;;;2.53;1.15;;;21.10;99.90;;;;;;5092533;28;20191;-83
2022/05/13 04:48:54;;;;;;;3.25;0.90;;;21.10;99.90;;;;;;5090879;28;20384;-83
2022/05/13 04:51:25;;;;;;;4.50;1.10;;;21.10;99.90;;;;;;5093567;28;20194;-83
2022/05/13 04:53:58;;;;;;;3.35;1.00;;;21.10;99.90;;;;;;5092091;28;20221;-84
2022/05/13 04:56:31;;;;;;;4.03;0.95;;;21.10;99.90;;;;;;5093228;28;20264;-84
2022/05/13 04:59:02;;;;;;;1.23;0.85;;;21.10;99.90;;;;;;5092871;28;20248;-85
2022/05/13 05:01:33;;;;;;;3.00;0.75;;;21.10;99.90;;;;;;5093442;28;20639;-84
2022/05/13 05:04:04;;;;;;;3.25;1.00;;;21.20;99.90;;;;;;5091150;28;20187;-85
2022/05/13 05:06:35;;;;;;;3.03;0.85;;;21.20;99.90;;;;;;5094490;28;20244;-84
2022/05/13 05:09:05;;;;;;;2.58;0.90;;;21.20;99.90;;;;;;5092975;28;20215;-84
2022/05/13 05:11:38;;;;;;;2.88;0.85;;;21.20;99.90;;;;;;5087440;28;20242;-84
2022/05/13 05:14:09;;;;;;;3.58;0.98;;;21.20;99.90;;;;;;5093535;28;20601;-83
2022/05/13 05:16:39;;;;;;;3.90;1.00;;;21.20;99.90;;;;;;5092782;28;20614;-83
2022/05/13 05:19:10;;;;;;;1.88;0.93;;;21.20;99.90;;;;;;5088993;28;20227;-84
2022/05/13 05:21:40;;;;;;;5.13;1.10;;;21.30;99.90;;;;;;5092713;28;20184;-84
2022/05/13 05:24:11;;;;;;;5.70;1.17;;;21.40;99.90;;;;;;5091041;28;20199;-84
2022/05/13 05:26:44;;;;;;;3.42;1.13;;;21.40;99.90;;;;;;5091324;28;20643;-84
2022/05/13 05:29:16;;;;;;;3.10;0.90;;;21.40;99.90;;;;;;5090999;28;20264;-84
2022/05/13 05:31:47;;;;;;;2.58;1.00;;;21.50;99.90;;;;;;5092534;28;20623;-84
2022/05/13 05:34:18;;;;;;;2.20;0.90;;;21.60;99.90;;;;;;5082777;28;20612;-83
2022/05/13 05:36:48;;;;;;;3.42;0.90;;;21.50;99.90;;;;;;5092668;28;20271;-84
2022/05/13 05:39:19;;;;;;;6.32;1.10;;;21.50;99.90;;;;;;5092149;28;20261;-83
2022/05/13 05:41:51;;;;;;;4.85;1.30;;;21.50;99.90;;;;;;5089207;28;20195;-83
2022/05/13 05:44:22;;;;;;;6.35;1.30;;;21.50;99.90;;;;;;5090464;28;20245;-82
2022/05/13 05:46:52;;;;;;;3.60;1.20;;;21.50;99.90;;;;;;5085972;28;20654;-83
2022/05/13 05:49:24;;;;;;;3.92;1.13;;;21.50;99.90;;;;;;5090861;28;20263;-85
2022/05/13 05:51:54;;;;;;;4.30;1.65;;;21.50;99.90;;;;;;5083761;28;20195;-85
2022/05/13 05:57:28;;;;;;;3.35;1.52;;;21.70;99.90;;;;;;5013451;28;20189;-84
2022/05/13 06:00:00;;;;;;;3.85;1.58;;;21.70;99.90;;;;;;5001516;28;20198;-83
2022/05/13 06:02:31;;;;;;;4.05;1.50;;;21.70;99.90;;;;;;5048813;28;20315;-84
2022/05/13 06:05:02;;;;;;;3.60;1.90;;;21.70;99.90;;;;;;5091934;28;20195;-84
2022/05/13 06:07:32;;;;;;;4.88;2.20;;;21.70;99.90;;;;;;5091551;28;20232;-85
2022/05/13 06:10:03;;;;;;;5.72;2.40;;;21.60;99.90;;;;;;5095912;28;20244;-85
2022/05/13 06:12:36;;;;;;;6.50;2.78;;;21.50;99.90;;;;;;5097733;28;20204;-84
2022/05/13 06:15:07;;;;;;;5.90;2.60;;;21.50;99.90;;;;;;5092969;28;20191;-85
2022/05/13 06:17:38;;;;;;;6.47;2.90;;;21.50;99.90;;;;;;5088926;28;20574;-84
2022/05/13 06:20:09;;;;;;;4.72;3.30;;;21.40;99.90;;;;;;5082746;28;20244;-84
2022/05/13 06:22:40;;;;;;;6.57;3.28;;;21.40;99.90;;;;;;5091452;28;20203;-84
2022/05/13 06:25:12;;;;;;;4.93;3.53;;;21.30;99.90;;;;;;5091735;28;20188;-86
2022/05/13 06:27:46;;;;;;;6.15;3.47;;;21.30;99.90;;;;;;5091508;28;20187;-87
2022/05/13 06:30:19;;;;;;;6.15;3.20;;;21.20;99.90;;;;;;5091877;28;20535;-86
2022/05/13 06:32:50;;;;;;;4.50;3.25;;;21.00;99.90;;;;;;5088100;28;20300;-82
2022/05/13 06:35:21;;;;;;;6.45;3.38;;;21.00;99.90;;;;;;5092169;28;20195;-82
2022/05/13 06:37:52;;;;;;;4.43;3.45;;;21.00;99.90;;;;;;5087719;28;20194;-81
2022/05/13 06:40:24;;;;;;;9.82;6.80;;;21.00;99.90;;;;;;5093779;28;20286;-82
2022/05/13 06:42:56;;;;;;;7.70;4.80;;;21.00;99.90;;;;;;5094152;28;20274;-79
2022/05/13 06:45:27;;;;;;;5.95;4.10;;;20.90;99.90;;;;;;5094319;28;20665;-79
2022/05/13 06:47:58;;;;;;;7.45;4.55;;;20.90;99.90;;;;;;5090117;28;20195;-81
2022/05/13 06:50:28;;;;;;;6.97;3.80;;;20.90;99.90;;;;;;5089915;28;20195;-81
2022/05/13 06:52:59;;;;;;;6.70;3.35;;;20.90;99.90;;;;;;5086155;28;20214;-83
2022/05/13 06:55:30;;;;;;;5.88;3.33;;;20.90;99.90;;;;;;5094556;28;20651;-83
2022/05/13 06:58:03;;;;;;;4.78;3.50;;;20.80;99.90;;;;;;5086028;28;20211;-82
2022/05/13 07:00:33;;;;;;;5.38;3.53;;;20.80;99.90;;;;;;5094415;28;20244;-82
2022/05/13 07:03:04;;;;;;;6.53;3.42;;;20.80;99.90;;;;;;5094022;28;20673;-83
2022/05/13 07:05:35;;;;;;;9.55;3.75;;;20.80;99.90;;;;;;5106384;28;20264;-83
2022/05/13 07:08:06;;;;;;;5.65;3.53;;;20.80;99.90;;;;;;5093900;28;20666;-83
2022/05/13 07:10:37;;;;;;;7.90;3.67;;;20.80;99.90;;;;;;5093821;28;20195;-83
2022/05/13 07:13:11;;;;;;;9.32;3.88;;;20.80;99.90;;;;;;5093539;28;20253;-83
2022/05/13 07:15:42;;;;;;;7.40;3.60;;;20.80;99.90;;;;;;5093519;28;20550;-83
2022/05/13 07:18:13;;;;;;;4.75;3.40;;;20.70;99.90;;;;;;5090477;28;20594;-83
2022/05/13 07:20:44;;;;;;;6.45;3.38;;;20.70;99.90;;;;;;5096785;28;20201;-83
2022/05/13 07:23:16;;;;;;;6.15;4.30;;;20.70;99.90;;;;;;5091717;28;20195;-83
2022/05/13 07:25:47;;;;;;;7.65;4.25;;;20.70;99.90;;;;;;5079515;28;20776;-83
2022/05/13 07:28:19;;;;;;;5.32;3.75;;;20.70;99.90;;;;;;5093715;28;20187;-83
2022/05/13 07:30:50;;;;;;;4.95;3.72;;;20.70;99.90;;;;;;5093293;28;20658;-83
2022/05/13 07:33:21;;;;;;;5.75;3.75;;;20.60;99.90;;;;;;5082714;28;20234;-83
2022/05/13 07:35:52;;;;;;;5.53;3.80;;;20.60;99.90;;;;;;5093372;28;20226;-83
2022/05/13 07:38:23;;;;;;;6.15;3.70;;;20.70;99.90;;;;;;5100631;28;20247;-84
2022/05/13 07:43:42;;;;;;;7.70;4.05;;;20.60;99.90;;;;;;5093571;28;20209;-83
2022/05/13 07:46:13;;;;;;;8.10;3.78;;;20.60;99.90;;;;;;5095443;28;20194;-84
2022/05/13 07:48:46;;;;;;;8.63;3.75;;;20.60;99.90;;;;;;5096853;28;20256;-83
2022/05/13 07:51:17;;;;;;;9.18;3.88;;;20.60;99.90;;;;;;5093546;28;20179;-83
2022/05/13 07:53:47;;;;;;;10.85;3.30;;;20.60;99.90;;;;;;5092932;28;20299;-83
2022/05/13 07:56:19;;;;;;;7.47;3.35;;;20.60;99.90;;;;;;5095066;28;20199;-83
2022/05/13 07:58:51;;;;;;;9.07;3.70;;;20.60;99.90;;;;;;5092890;28;20264;-83
2022/05/13 08:01:22;;;;;;;9.38;3.35;;;20.60;99.90;;;;;;5094421;28;20270;-84
2022/05/13 08:03:52;;;;;;;10.75;3.17;;;20.60;99.90;;;;;;5101629;28;20202;-82
2022/05/13 08:06:23;;;;;;;8.40;3.35;;;20.70;99.90;;;;;;5093950;28;20276;-81
2022/05/13 08:08:56;;;;;;;15.27;4.00;;;20.70;99.90;;;;;;5092735;28;20233;-84
2022/05/13 08:11:28;;;;;;;11.52;4.03;;;20.70;99.90;;;;;;5093913;28;20562;-85
2022/05/13 08:14:01;;;;;;;11.18;3.47;;;20.70;99.90;;;;;;5102168;28;20733;-81
2022/05/13 08:16:33;;;;;;;10.13;3.38;;;20.70;99.90;;;;;;5088573;28;20270;-82
2022/05/13 08:19:05;;;;;;;10.55;3.80;;;20.70;99.90;;;;;;5090347;28;20348;-85
2022/05/13 08:21:35;;;;;;;10.43;3.92;;;20.70;99.90;;;;;;5097343;28;20184;-82
2022/05/13 08:24:06;;;;;;;8.95;3.88;;;20.70;99.90;;;;;;5088986;28;20238;-83
2022/05/13 08:26:37;;;;;;;9.23;3.78;;;20.70;99.90;;;;;;5091911;28;20203;-83
2022/05/13 08:29:10;;;;;;;11.95;4.20;;;20.60;99.90;;;;;;5094133;28;20251;-83
2022/05/13 08:31:40;;;;;;;11.23;3.97;;;20.60;99.90;;;;;;5081132;28;20195;-82
2022/05/13 08:34:12;;;;;;;11.63;4.30;;;20.60;99.90;;;;;;5091629;28;20268;-80
2022/05/13 08:36:43;;;;;;;8.57;3.80;;;20.60;99.90;;;;;;5100591;28;20187;-82
2022/05/13 08:39:14;;;;;;;12.65;4.00;;;20.60;99.90;;;;;;5091934;28;20183;-82
2022/05/13 08:42:06;;;;;;;8.98;3.63;;;20.60;99.90;;;;;;5090273;28;20257;-83
2022/05/13 08:44:39;;;;;;;8.50;3.65;;;20.50;99.90;;;;;;5091528;28;20278;-81
2022/05/13 08:47:15;;;;;;;10.52;3.95;;;20.60;99.90;;;;;;5091154;28;20199;-81
2022/05/13 08:49:53;;;;;;;9.10;3.50;;;20.60;99.90;;;;;;5089495;28;20191;-81
2022/05/13 08:55:36;;;;;;;11.98;3.70;;;20.50;99.90;;;;;;5086799;28;20198;-84
2022/05/13 08:58:09;;;;;;;9.02;3.90;;;20.50;99.90;;;;;;5090067;28;20621;-83
2022/05/13 09:00:44;;;;;;;9.60;3.60;;;20.50;99.90;;;;;;5091492;28;20203;-83
2022/05/13 09:03:31;;;;;;;8.85;4.18;;;20.50;99.90;;;;;;5085562;28;20539;-80
2022/05/13 09:06:06;;;;;;;9.50;4.10;;;20.50;99.90;;;;;;5090287;28;20207;-81
2022/05/13 09:08:37;;;;;;;10.60;4.30;;;20.40;99.90;;;;;;5089405;28;20654;-81
2022/05/13 09:11:17;;;;;;;9.52;4.40;;;20.40;99.90;;;;;;5091054;28;20206;-82
2022/05/13 09:14:02;;;;;;;10.93;4.60;;;20.40;99.90;;;;;;5091483;28;20718;-81
2022/05/13 09:16:50;;;;;;;9.95;4.25;;;20.40;99.90;;;;;;5091086;28;20183;-81
2022/05/13 09:19:30;;;;;;;13.25;4.25;;;20.40;99.90;;;;;;5088678;28;20689;-82
2022/05/13 09:22:01;;;;;;;10.98;4.10;;;20.40;99.90;;;;;;5077567;28;20630;-83
2022/05/13 09:24:32;;;;;;;8.35;4.07;;;20.40;99.90;;;;;;5087853;28;20715;-80
2022/05/13 09:27:02;;;;;;;9.25;4.30;;;20.40;99.90;;;;;;5090953;28;20195;-82
2022/05/13 09:29:42;;;;;;;10.82;4.18;;;20.40;99.90;;;;;;5090640;28;20674;-82
2022/05/13 09:32:26;;;;;;;9.95;4.93;;;20.30;99.90;;;;;;5087637;28;20199;-81
2022/05/13 09:35:05;;;;;;;9.63;4.38;;;20.40;99.90;;;;;;5090226;28;20292;-81
2022/05/13 09:37:41;;;;;;;13.05;4.75;;;20.30;99.90;;;;;;5100445;28;20203;-83
2022/05/13 09:40:15;;;;;;;7.80;3.78;;;20.30;99.90;;;;;;5094250;28;20252;-82
2022/05/13 09:42:47;;;;;;;8.75;4.45;;;20.30;99.90;;;;;;5085176;28;20630;-83
2022/05/13 09:45:22;;;;;;;10.52;4.07;;;20.30;99.90;;;;;;5091260;28;20286;-82
2022/05/13 09:48:19;;;;;;;9.68;4.53;;;20.30;99.90;;;;;;5087693;28;20199;-82
2022/05/13 09:50:53;;;;;;;10.35;4.55;;;20.30;99.90;;;;;;5071468;28;20282;-82
2022/05/13 09:53:35;;;;;;;10.60;4.90;;;20.30;99.90;;;;;;5089953;28;20222;-82
2022/05/13 09:56:07;;;;;;;13.00;5.53;;;20.30;99.90;;;;;;5089254;28;20187;-81
2022/05/13 09:58:51;;;;;;;11.52;5.72;;;20.30;99.90;;;;;;5082646;28;20195;-81
2022/05/13 10:01:31;;;;;;;10.45;5.72;;;20.30;99.90;;;;;;5087213;28;20195;-82
2022/05/13 10:04:10;;;;;;;20.70;5.75;;;20.30;99.90;;;;;;5078558;28;20312;-82
2022/05/13 10:06:42;;;;;;;13.50;5.38;;;20.20;99.90;;;;;;5080294;28;20216;-83
2022/05/13 10:15:14;;;;;;;11.60;5.75;;;20.20;99.90;;;;;;5079971;28;20300;-82
2022/05/13 10:17:51;;;;;;;9.57;5.38;;;20.20;99.90;;;;;;5080194;28;20668;-81
2022/05/13 10:20:30;;;;;;;12.30;5.20;;;20.20;99.90;;;;;;5082651;28;20206;-82
2022/05/13 10:23:09;;;;;;;12.00;5.20;;;20.20;99.90;;;;;;5082890;28;20194;-78
2022/05/13 10:25:51;;;;;;;11.23;5.25;;;20.20;99.90;;;;;;5080435;28;20203;-80
2022/05/13 10:28:24;;;;;;;10.57;6.30;;;20.20;99.90;;;;;;5081546;28;20195;-80
2022/05/13 10:31:05;;;;;;;9.32;5.60;;;20.20;99.90;;;;;;5080590;28;20195;-80
2022/05/13 10:33:41;;;;;;;10.90;5.70;;;20.20;99.90;;;;;;5082660;28;20237;-80
2022/05/13 10:36:19;;;;;;;12.38;5.65;;;20.20;99.90;;;;;;5086315;28;20187;-81
2022/05/13 10:38:56;;;;;;;12.55;4.95;;;20.20;99.90;;;;;;5079731;28;20200;-79
2022/05/13 10:41:37;;;;;;;12.55;5.32;;;20.20;99.90;;;;;;5080012;28;20669;-78
2022/05/13 10:44:14;;;;;;;11.50;5.50;;;20.20;99.90;;;;;;5080401;28;20681;-77
2022/05/13 10:46:51;;;;;;;14.40;5.78;;;20.20;99.90;;;;;;5080229;28;20198;-78
2022/05/13 10:49:21;;;;;;;17.70;6.75;;;20.20;99.90;;;;;;5076193;28;20271;-77
2022/05/13 10:52:00;;;;;;;18.52;8.25;;;20.30;99.90;;;;;;5079583;28;20702;-77
2022/05/13 10:54:47;;;;;;;19.33;7.10;;;20.30;99.90;;;;;;5080910;28;20211;-78
2022/05/13 10:57:32;;;;;;;14.57;7.07;;;20.30;99.90;;;;;;5078290;28;20199;-76
2022/05/13 11:00:14;;;;;;;15.00;7.45;;;20.30;99.90;;;;;;5080358;28;20187;-77
2022/05/13 11:03:00;;;;;;;10.15;6.28;;;20.30;99.90;;;;;;5078571;28;20220;-77
2022/05/13 11:05:38;;;;;;;13.07;6.50;;;20.30;99.90;;;;;;5080418;28;20192;-77
2022/05/13 11:08:19;;;;;;;14.77;6.43;;;20.30;99.90;;;;;;5083103;28;20220;-78
2022/05/13 11:11:00;;;;;;;15.40;6.68;;;20.30;99.90;;;;;;5082894;28;20273;-77
2022/05/13 11:13:52;;;;;;;13.88;6.25;;;20.30;99.90;;;;;;5082463;28;20192;-77
2022/05/13 11:16:35;;;;;;;12.93;5.75;;;20.30;99.90;;;;;;5082888;28;20196;-76
2022/05/13 11:19:17;;;;;;;14.75;6.15;;;20.30;99.90;;;;;;5082048;28;21060;-77
2022/05/13 11:21:56;;;;;;;11.32;6.03;;;20.30;99.90;;;;;;5084705;28;20191;-77
2022/05/13 11:27:40;;;;;;;12.27;6.25;;;20.20;99.90;;;;;;5086443;28;20187;-76
2022/05/13 11:30:14;;;;;;;11.68;6.20;;;20.30;99.90;;;;;;5085637;28;20623;-78
2022/05/13 11:32:50;;;;;;;11.95;6.28;;;20.20;99.90;;;;;;5082834;28;20200;-77
2022/05/13 11:35:40;;;;;;;13.48;6.80;;;20.20;99.90;;;;;;5082241;28;20280;-77
2022/05/13 11:38:19;;;;;;;14.05;7.00;;;20.20;99.90;;;;;;5084160;28;20192;-77
2022/05/13 11:41:03;;;;;;;11.30;6.10;;;20.20;99.90;;;;;;5085820;28;20244;-77
2022/05/13 11:43:49;;;;;;;12.25;6.10;;;20.20;99.90;;;;;;5086129;28;20195;-77
2022/05/13 11:46:35;;;;;;;12.48;6.13;;;20.20;99.90;;;;;;5086171;28;20240;-76
2022/05/13 11:49:12;;;;;;;10.23;5.88;;;20.20;99.90;;;;;;5084588;28;20255;-79
2022/05/13 11:51:42;;;;;;;9.80;5.88;;;20.20;99.90;;;;;;5085359;28;20901;-76
2022/05/13 11:54:25;;;;;;;12.40;6.07;;;20.20;99.90;;;;;;5084285;28;20227;-81
2022/05/13 11:57:26;;;;;;;11.10;6.28;;;20.20;99.90;;;;;;5081065;28;20179;-81
2022/05/13 11:59:58;;;;;;;9.48;5.72;;;20.20;99.90;;;;;;5083475;28;20279;-81
2022/05/13 12:02:51;;;;;;;12.35;6.15;;;20.20;99.90;;;;;;5082040;28;20219;-81
2022/05/13 12:05:36;;;;;;;11.25;5.93;;;20.20;99.90;;;;;;5082791;28;20210;-82
2022/05/13 12:08:18;;;;;;;12.75;6.28;;;20.20;99.90;;;;;;5082904;28;20195;-82
2022/05/13 12:10:58;;;;;;;8.50;5.75;;;20.20;99.90;;;;;;5077584;28;20199;-77
2022/05/13 12:13:43;;;;;;;10.15;6.03;;;20.20;99.90;;;;;;5080991;28;20203;-78
2022/05/13 12:16:36;;;;;;;9.77;5.75;;;20.20;99.90;;;;;;5081758;28;20298;-79
2022/05/13 12:19:28;;;;;;;10.38;6.38;;;20.20;99.90;;;;;;5080847;28;20234;-78
2022/05/13 12:22:05;;;;;;;9.20;5.95;;;20.20;99.90;;;;;;5081087;28;20614;-78
2022/05/13 12:25:01;;;;;;;12.35;6.05;;;20.20;99.90;;;;;;5080367;28;20211;-81
2022/05/13 12:27:35;;;;;;;11.73;6.43;;;20.20;99.90;;;;;;5079718;28;20209;-77
2022/05/13 12:30:31;;;;;;;9.70;6.00;;;20.20;99.90;;;;;;5082880;28;20253;-77
2022/05/13 12:33:16;;;;;;;10.13;5.75;;;20.20;99.90;;;;;;5084078;28;20208;-77
2022/05/13 12:38:55;;;;;;;12.18;5.32;;;20.20;99.90;;;;;;5084295;28;20205;-77
2022/05/13 12:41:27;;;;;;;7.78;5.53;;;20.20;99.90;;;;;;5082571;28;20253;-79
2022/05/13 12:44:12;;;;;;;10.30;6.13;;;20.20;99.90;;;;;;5084362;28;20195;-79
2022/05/13 12:46:49;;;;;;;9.73;5.95;;;20.20;99.90;;;;;;5085580;28;20200;-79
2022/05/13 12:49:23;;;;;;;9.60;5.53;;;20.10;99.90;;;;;;5085294;28;20199;-80
2022/05/13 12:52:03;;;;;;;7.82;5.20;;;20.10;99.90;;;;;;5084943;28;20199;-80
2022/05/13 12:54:40;;;;;;;10.55;5.97;;;20.10;99.90;;;;;;5084573;28;20219;-79
2022/05/13 12:57:14;;;;;;;10.25;5.72;;;20.10;99.90;;;;;;5084848;28;20203;-80
2022/05/13 12:59:48;;;;;;;9.40;5.85;;;20.10;99.90;;;;;;5084960;28;20244;-80
2022/05/13 13:02:24;;;;;;;8.05;5.45;;;20.10;99.90;;;;;;5084903;28;20268;-79
2022/05/13 13:05:00;;;;;;;7.78;5.70;;;20.10;99.90;;;;;;5082216;28;20227;-79
2022/05/13 13:07:32;;;;;;;17.90;6.45;;;20.10;99.90;;;;;;5083610;28;20203;-79
2022/05/13 13:10:03;;;;;;;9.02;5.55;;;20.10;99.90;;;;;;5084143;28;20203;-79
2022/05/13 13:12:37;;;;;;;10.57;5.63;;;20.10;99.90;;;;;;5084715;28;20191;-79
2022/05/13 13:15:13;;;;;;;9.48;5.90;;;20.00;99.90;;;;;;5084642;28;20639;-79
2022/05/13 13:17:49;;;;;;;9.13;6.20;;;20.00;99.90;;;;;;5084397;28;20327;-80
2022/05/13 13:20:21;;;;;;;8.07;6.07;;;20.00;99.90;;;;;;5084327;28;20191;-77
2022/05/13 13:22:55;;;;;;;8.48;6.45;;;20.00;99.90;;;;;;5084240;28;21468;-79
2022/05/13 13:25:31;;;;;;;7.18;5.75;;;20.00;99.90;;;;;;5084505;28;20207;-80
2022/05/13 13:28:05;;;;;;;8.05;5.88;;;20.00;99.90;;;;;;5083977;28;20195;-79
2022/05/13 13:30:44;;;;;;;9.63;6.00;;;20.00;99.90;;;;;;5083517;28;20248;-79
2022/05/13 13:33:23;;;;;;;8.63;5.85;;;20.10;99.90;;;;;;5085333;28;20188;-78
2022/05/13 13:35:53;;;;;;;9.60;5.75;;;20.00;99.90;;;;;;5084558;28;20218;-78
2022/05/13 13:38:24;;;;;;;8.43;5.72;;;20.00;99.90;;;;;;5084475;28;20214;-80
2022/05/13 13:40:55;;;;;;;10.27;6.55;;;20.00;99.90;;;;;;5083604;28;20195;-79
2022/05/13 13:43:27;;;;;;;9.95;6.60;;;20.10;99.90;;;;;;5081008;28;20191;-79
2022/05/13 13:46:01;;;;;;;8.43;6.32;;;20.00;99.90;;;;;;5082392;28;20195;-79
2022/05/13 13:48:37;;;;;;;8.57;6.20;;;20.00;99.90;;;;;;5083983;28;20195;-79
2022/05/13 13:51:09;;;;;;;8.60;5.97;;;20.00;99.90;;;;;;5083243;28;20225;-79
2022/05/13 13:53:41;;;;;;;8.57;6.03;;;20.00;99.90;;;;;;5084213;28;20199;-78
2022/05/13 13:56:14;;;;;;;8.25;6.63;;;20.00;99.90;;;;;;5083232;28;20230;-79